createdAt,value
2023-05-21T00:00:21.097Z,20.94
2023-05-21T00:02:49.571Z,20.87
2023-05-21T00:05:18.517Z,20.85
2023-05-21T00:07:48.333Z,20.83
2023-05-21T00:10:16.918Z,20.81
2023-05-21T00:12:46.386Z,20.78
2023-05-21T00:15:14.609Z,20.77
2023-05-21T00:17:43.542Z,20.77
2023-05-21T00:20:13.036Z,20.73
2023-05-21T00:22:42.355Z,20.66
2023-05-21T00:25:13.277Z,20.62
2023-05-21T00:27:41.451Z,20.59
2023-05-21T00:30:10.139Z,20.57
2023-05-21T00:32:38.731Z,20.54
2023-05-21T00:35:08.125Z,20.52
2023-05-21T00:37:36.232Z,20.50
2023-05-21T00:40:09.205Z,20.47
2023-05-21T00:42:40.636Z,20.45
2023-05-21T00:45:10.103Z,20.42
2023-05-21T00:47:39.219Z,20.37
2023-05-21T00:50:08.763Z,20.35
2023-05-21T00:52:42.267Z,20.32
2023-05-21T00:55:11.805Z,20.28
2023-05-21T00:57:42.607Z,20.25
2023-05-21T01:00:12.165Z,20.21
2023-05-21T01:02:40.709Z,20.19
2023-05-21T01:05:09.620Z,20.18
2023-05-21T01:07:41.518Z,20.14
2023-05-21T01:10:12.463Z,20.12
2023-05-21T01:12:45.679Z,20.10
2023-05-21T01:15:15.215Z,20.09
2023-05-21T01:17:46.186Z,20.10
2023-05-21T01:20:18.182Z,20.09
2023-05-21T01:22:53.079Z,20.08
2023-05-21T01:25:21.698Z,20.05
2023-05-21T01:27:49.976Z,20.06
2023-05-21T01:30:20.070Z,20.06
2023-05-21T01:32:53.650Z,20.05
2023-05-21T01:35:26.223Z,20.03
2023-05-21T01:38:02.500Z,20.03
2023-05-21T01:40:35.844Z,20.02
2023-05-21T01:43:06.125Z,20.01
2023-05-21T01:45:37.552Z,20.01
2023-05-21T01:48:08.237Z,19.99
2023-05-21T01:50:36.998Z,19.99
2023-05-21T01:53:06.838Z,19.98
2023-05-21T01:55:39.545Z,19.96
2023-05-21T01:58:08.725Z,19.96
2023-05-21T02:00:37.583Z,19.96
2023-05-21T02:03:06.079Z,19.96
2023-05-21T02:05:34.464Z,19.97
2023-05-21T02:08:02.933Z,19.98
2023-05-21T02:10:32.792Z,19.95
2023-05-21T02:13:01.090Z,19.95
2023-05-21T02:15:30.430Z,19.94
2023-05-21T02:17:58.927Z,19.94
2023-05-21T02:20:27.795Z,19.92
2023-05-21T02:22:55.922Z,19.92
2023-05-21T02:25:24.210Z,19.91
2023-05-21T02:27:56.903Z,19.93
2023-05-21T02:30:25.264Z,19.92
2023-05-21T02:32:57.499Z,19.91
2023-05-21T02:35:26.072Z,19.90
2023-05-21T02:37:58.984Z,19.90
2023-05-21T02:40:27.316Z,19.90
2023-05-21T02:42:56.998Z,19.88
2023-05-21T02:45:25.748Z,19.80
2023-05-21T02:47:53.916Z,19.76
2023-05-21T02:50:23.352Z,19.75
2023-05-21T02:52:54.652Z,19.77
2023-05-21T02:55:23.516Z,19.77
2023-05-21T02:57:51.957Z,19.72
2023-05-21T03:00:21.836Z,19.73
2023-05-21T03:02:50.843Z,19.72
2023-05-21T03:05:19.079Z,19.73
2023-05-21T03:07:47.224Z,19.66
2023-05-21T03:10:16.716Z,19.68
2023-05-21T03:12:44.992Z,19.67
2023-05-21T03:15:14.999Z,19.68
2023-05-21T03:17:44.931Z,19.69
2023-05-21T03:20:16.550Z,19.68
2023-05-21T03:22:45.570Z,19.67
2023-05-21T03:25:13.849Z,19.67
2023-05-21T03:27:42.304Z,19.67
2023-05-21T03:30:13.254Z,19.64
2023-05-21T03:32:46.064Z,19.57
2023-05-21T03:35:14.641Z,19.54
2023-05-21T03:37:42.863Z,19.53
2023-05-21T03:40:12.008Z,19.54
2023-05-21T03:42:40.446Z,19.58
2023-05-21T03:45:09.547Z,19.61
2023-05-21T03:47:38.164Z,19.62
2023-05-21T03:50:10.565Z,19.63
2023-05-21T03:52:38.782Z,19.63
2023-05-21T03:55:07.911Z,19.65
2023-05-21T03:57:36.078Z,19.68
2023-05-21T04:00:05.040Z,19.67
2023-05-21T04:02:44.097Z,19.70
2023-05-21T04:05:14.714Z,19.73
2023-05-21T04:07:42.983Z,19.78
2023-05-21T04:10:11.510Z,19.80
2023-05-21T04:12:39.930Z,19.83
2023-05-21T04:15:09.277Z,19.83
2023-05-21T04:17:37.525Z,19.79
2023-05-21T04:20:07.167Z,19.74
2023-05-21T04:22:36.822Z,19.66
2023-05-21T04:25:05.414Z,19.66
2023-05-21T04:27:35.542Z,19.66
2023-05-21T04:30:04.272Z,19.68
2023-05-21T04:32:35.005Z,19.68
2023-05-21T04:35:04.338Z,19.80
2023-05-21T04:37:35.156Z,19.88
2023-05-21T04:40:06.632Z,19.92
2023-05-21T04:42:36.424Z,19.92
2023-05-21T04:45:05.840Z,19.96
2023-05-21T04:47:35.506Z,20.00
2023-05-21T04:50:05.200Z,20.09
2023-05-21T04:52:34.818Z,20.12
2023-05-21T04:55:03.125Z,20.14
2023-05-21T04:57:32.724Z,20.19
2023-05-21T05:00:02.025Z,20.33
2023-05-21T05:02:33.281Z,20.41
2023-05-21T05:05:01.671Z,20.47
2023-05-21T05:07:29.687Z,20.49
2023-05-21T05:09:57.974Z,20.50
2023-05-21T05:12:26.366Z,20.57
2023-05-21T05:14:55.931Z,20.74
2023-05-21T05:17:24.676Z,20.85
2023-05-21T05:19:53.236Z,20.95
2023-05-21T05:22:21.546Z,20.99
2023-05-21T05:24:49.719Z,21.08
2023-05-21T05:27:18.909Z,21.13
2023-05-21T05:29:46.995Z,21.21
2023-05-21T05:32:17.334Z,21.29
2023-05-21T05:34:49.019Z,21.38
2023-05-21T05:37:17.350Z,21.41
2023-05-21T05:39:45.736Z,21.49
2023-05-21T05:42:14.916Z,21.56
2023-05-21T05:44:43.011Z,21.66
2023-05-21T05:47:11.394Z,21.75
2023-05-21T05:49:40.872Z,21.83
2023-05-21T05:52:09.002Z,21.92
2023-05-21T05:54:37.388Z,22.04
2023-05-21T05:57:06.768Z,22.01
2023-05-21T05:59:36.189Z,22.02
2023-05-21T06:02:05.118Z,22.04
2023-05-21T06:04:33.468Z,22.21
2023-05-21T06:07:03.091Z,22.23
2023-05-21T06:09:31.166Z,22.24
2023-05-21T06:11:59.574Z,22.37
2023-05-21T06:14:27.737Z,22.35
2023-05-21T06:16:55.847Z,22.58
2023-05-21T06:19:24.816Z,22.67
2023-05-21T06:21:53.187Z,22.71
2023-05-21T06:24:22.584Z,22.97
2023-05-21T06:26:51.434Z,23.19
2023-05-21T06:29:19.784Z,23.38
2023-05-21T06:31:48.649Z,23.56
2023-05-21T06:34:17.545Z,23.70
2023-05-21T06:36:45.887Z,23.83
2023-05-21T06:39:14.057Z,23.97
2023-05-21T06:41:44.692Z,24.17
2023-05-21T06:44:21.087Z,24.30
2023-05-21T06:46:51.721Z,24.43
2023-05-21T06:49:20.914Z,24.55
2023-05-21T06:51:52.524Z,24.69
2023-05-21T06:54:21.670Z,24.81
2023-05-21T06:56:52.902Z,24.96
2023-05-21T06:59:21.688Z,25.20
2023-05-21T07:01:49.855Z,25.40
2023-05-21T07:04:18.112Z,25.64
2023-05-21T07:06:46.873Z,25.81
2023-05-21T07:09:15.595Z,25.98
2023-05-21T07:11:44.419Z,26.12
2023-05-21T07:14:15.607Z,26.31
2023-05-21T07:16:44.073Z,26.51
2023-05-21T07:19:12.788Z,26.65
2023-05-21T07:21:41.539Z,26.54
2023-05-21T07:24:09.812Z,26.82
2023-05-21T07:26:39.299Z,27.04
2023-05-21T07:29:07.952Z,27.29
2023-05-21T07:31:37.693Z,27.42
2023-05-21T07:34:06.872Z,27.57
2023-05-21T07:36:42.832Z,27.76
2023-05-21T07:39:13.128Z,27.84
2023-05-21T07:41:42.417Z,27.97
2023-05-21T07:44:13.019Z,28.02
2023-05-21T07:46:43.019Z,28.13
2023-05-21T07:49:16.761Z,28.34
2023-05-21T07:51:45.957Z,28.57
2023-05-21T07:54:14.764Z,28.80
2023-05-21T07:56:43.052Z,28.90
2023-05-21T07:59:14.882Z,29.10
2023-05-21T08:01:47.202Z,29.27
2023-05-21T08:04:15.768Z,29.47
2023-05-21T08:06:44.397Z,29.57
2023-05-21T08:09:12.682Z,29.65
2023-05-21T08:11:42.287Z,29.75
2023-05-21T08:14:10.344Z,29.65
2023-05-21T08:16:39.496Z,29.83
2023-05-21T08:19:09.526Z,29.90
2023-05-21T08:21:37.739Z,30.00
2023-05-21T08:24:06.697Z,29.99
2023-05-21T08:26:35.736Z,30.34
2023-05-21T08:29:04.210Z,30.50
2023-05-21T08:31:32.530Z,30.69
2023-05-21T08:34:01.228Z,30.80
2023-05-21T08:36:34.813Z,30.95
2023-05-21T08:39:03.518Z,31.12
2023-05-21T08:41:37.831Z,31.18
2023-05-21T08:44:12.405Z,31.35
2023-05-21T08:46:42.854Z,31.48
2023-05-21T08:49:14.036Z,31.62
2023-05-21T08:51:44.524Z,31.81
2023-05-21T08:54:14.183Z,31.85
2023-05-21T08:56:47.229Z,32.01
2023-05-21T08:59:19.391Z,32.11
2023-05-21T09:01:51.060Z,32.08
2023-05-21T09:04:21.617Z,32.36
2023-05-21T09:06:52.749Z,32.36
2023-05-21T09:09:29.308Z,32.57
2023-05-21T09:11:57.444Z,32.67
2023-05-21T09:14:27.448Z,32.83
2023-05-21T09:16:56.369Z,33.10
2023-05-21T09:19:25.363Z,33.10
2023-05-21T09:21:55.500Z,33.36
2023-05-21T09:24:24.213Z,33.54
2023-05-21T09:26:52.836Z,33.49
2023-05-21T09:29:21.829Z,33.53
2023-05-21T09:31:51.186Z,33.71
2023-05-21T09:34:19.420Z,33.77
2023-05-21T09:36:50.128Z,33.94
2023-05-21T09:39:30.613Z,34.09
2023-05-21T09:42:00.949Z,33.91
2023-05-21T09:44:29.297Z,34.20
2023-05-21T09:46:59.536Z,34.53
2023-05-21T09:49:28.548Z,34.39
2023-05-21T09:51:57.166Z,34.32
2023-05-21T09:54:25.952Z,34.52
2023-05-21T09:56:55.685Z,34.65
2023-05-21T09:59:24.174Z,34.55
2023-05-21T10:01:53.307Z,34.63
2023-05-21T10:04:22.889Z,34.84
2023-05-21T10:06:52.127Z,34.88
2023-05-21T10:09:21.702Z,35.18
2023-05-21T10:11:53.231Z,35.23
2023-05-21T10:14:26.390Z,35.14
2023-05-21T10:16:55.808Z,35.04
2023-05-21T10:19:28.711Z,35.12
2023-05-21T10:21:57.818Z,35.16
2023-05-21T10:24:26.816Z,35.05
2023-05-21T10:26:55.483Z,35.30
2023-05-21T10:29:26.755Z,35.52
2023-05-21T10:31:54.984Z,35.54
2023-05-21T10:34:24.948Z,35.78
2023-05-21T10:36:55.387Z,35.49
2023-05-21T10:39:25.405Z,35.77
2023-05-21T10:42:02.767Z,35.78
2023-05-21T10:44:44.622Z,35.65
2023-05-21T10:47:43.400Z,36.15
2023-05-21T10:50:38.670Z,36.13
2023-05-21T10:53:15.446Z,35.92
2023-05-21T10:55:58.510Z,35.82
2023-05-21T10:58:43.893Z,35.91
2023-05-21T11:01:15.202Z,36.39
2023-05-21T11:03:44.022Z,36.32
2023-05-21T11:06:12.554Z,36.25
2023-05-21T11:08:49.107Z,36.18
2023-05-21T11:11:46.233Z,35.92
2023-05-21T11:14:32.823Z,35.75
2023-05-21T11:17:03.666Z,35.90
2023-05-21T11:19:40.120Z,35.91
2023-05-21T11:22:10.715Z,35.92
2023-05-21T11:24:40.603Z,35.80
2023-05-21T11:27:09.913Z,36.13
2023-05-21T11:29:46.020Z,36.09
2023-05-21T11:32:17.583Z,36.23
2023-05-21T11:34:49.587Z,36.21
2023-05-21T11:37:27.849Z,36.21
2023-05-21T11:39:56.690Z,36.09
2023-05-21T11:42:33.670Z,36.29
2023-05-21T11:45:04.027Z,35.92
2023-05-21T11:47:35.031Z,36.11
2023-05-21T11:50:05.298Z,36.43
2023-05-21T11:52:33.811Z,36.35
2023-05-21T11:55:01.978Z,36.07
2023-05-21T11:57:31.948Z,36.10
2023-05-21T12:00:09.131Z,35.70
2023-05-21T12:02:46.091Z,36.06
2023-05-21T12:05:17.532Z,35.84
2023-05-21T12:07:50.114Z,35.77
2023-05-21T12:10:23.237Z,35.95
2023-05-21T12:12:56.508Z,36.13
2023-05-21T12:15:28.452Z,36.40
2023-05-21T12:17:58.683Z,36.34
2023-05-21T12:20:28.896Z,36.29
2023-05-21T12:22:59.094Z,36.13
2023-05-21T12:25:28.499Z,36.24
2023-05-21T12:27:58.828Z,36.35
2023-05-21T12:30:28.065Z,36.41
2023-05-21T12:33:02.177Z,36.54
2023-05-21T12:35:31.688Z,36.72
2023-05-21T12:38:02.056Z,36.72
2023-05-21T12:40:37.276Z,36.80
2023-05-21T12:43:06.311Z,36.51
2023-05-21T12:45:36.653Z,36.54
2023-05-21T12:48:06.536Z,36.40
2023-05-21T12:50:35.749Z,36.33
2023-05-21T12:53:04.248Z,36.42
2023-05-21T12:55:33.006Z,36.50
2023-05-21T12:58:04.295Z,36.33
2023-05-21T13:00:33.559Z,36.17
2023-05-21T13:03:02.197Z,35.96
2023-05-21T13:05:31.993Z,35.95
2023-05-21T13:08:03.815Z,36.08
2023-05-21T13:10:32.320Z,35.92
2023-05-21T13:13:00.456Z,35.86
2023-05-21T13:15:29.165Z,35.91
2023-05-21T13:17:59.058Z,35.86
2023-05-21T13:20:28.036Z,36.05
2023-05-21T13:22:58.003Z,35.97
2023-05-21T13:25:29.315Z,35.79
2023-05-21T13:27:58.980Z,35.93
2023-05-21T13:30:27.503Z,36.24
2023-05-21T13:32:56.166Z,36.39
2023-05-21T13:35:24.416Z,36.55
2023-05-21T13:37:52.744Z,36.60
2023-05-21T13:40:23.037Z,36.60
2023-05-21T13:42:51.631Z,36.67
2023-05-21T13:45:21.485Z,36.87
2023-05-21T13:47:49.824Z,36.96
2023-05-21T13:50:18.057Z,37.25
2023-05-21T13:52:49.196Z,37.35
2023-05-21T13:55:22.627Z,37.44
2023-05-21T13:57:51.017Z,37.83
2023-05-21T14:00:19.056Z,38.09
2023-05-21T14:02:47.616Z,38.14
2023-05-21T14:05:15.774Z,38.03
2023-05-21T14:07:43.965Z,37.83
2023-05-21T14:10:13.358Z,37.91
2023-05-21T14:12:42.942Z,37.97
2023-05-21T14:15:12.015Z,37.66
2023-05-21T14:17:42.458Z,37.57
2023-05-21T14:20:11.279Z,37.72
2023-05-21T14:22:39.788Z,37.58
2023-05-21T14:25:08.608Z,37.68
2023-05-21T14:27:38.421Z,37.58
2023-05-21T14:30:09.477Z,37.65
2023-05-21T14:32:37.840Z,37.74
2023-05-21T14:35:06.753Z,38.04
2023-05-21T14:37:35.012Z,38.07
2023-05-21T14:40:05.573Z,38.28
2023-05-21T14:42:33.810Z,38.57
2023-05-21T14:45:17.442Z,38.54
2023-05-21T14:47:48.887Z,38.69
2023-05-21T14:50:19.810Z,38.61
2023-05-21T14:52:48.231Z,38.71
2023-05-21T14:55:25.383Z,38.97
2023-05-21T14:57:54.173Z,38.99
2023-05-21T15:00:22.695Z,39.42
2023-05-21T15:02:57.335Z,39.46
2023-05-21T15:05:28.194Z,39.23
2023-05-21T15:07:56.887Z,39.36
2023-05-21T15:10:25.278Z,39.40
2023-05-21T15:12:54.073Z,39.29
2023-05-21T15:15:32.886Z,39.08
2023-05-21T15:18:03.865Z,39.18
2023-05-21T15:20:41.365Z,38.94
2023-05-21T15:23:16.964Z,38.97
2023-05-21T15:25:46.317Z,38.79
2023-05-21T15:28:14.844Z,38.33
2023-05-21T15:30:42.993Z,37.86
2023-05-21T15:33:12.501Z,37.78
2023-05-21T15:35:41.248Z,37.33
2023-05-21T15:38:09.704Z,37.07
2023-05-21T15:40:41.301Z,36.81
2023-05-21T15:43:09.955Z,36.67
2023-05-21T15:45:39.019Z,36.64
2023-05-21T15:48:09.979Z,36.51
2023-05-21T15:50:40.079Z,36.58
2023-05-21T15:53:24.345Z,36.49
2023-05-21T15:55:55.473Z,36.45
2023-05-21T15:58:24.176Z,36.31
2023-05-21T16:00:52.741Z,36.15
2023-05-21T16:03:21.285Z,35.91
2023-05-21T16:05:50.951Z,35.85
2023-05-21T16:08:19.247Z,35.66
2023-05-21T16:10:47.751Z,35.26
2023-05-21T16:13:15.992Z,35.18
2023-05-21T16:15:44.098Z,35.03
2023-05-21T16:18:12.472Z,34.90
2023-05-21T16:20:42.107Z,34.78
2023-05-21T16:23:12.917Z,34.61
2023-05-21T16:25:42.190Z,34.53
2023-05-21T16:28:12.264Z,34.37
2023-05-21T16:30:40.810Z,34.24
2023-05-21T16:33:09.361Z,34.17
2023-05-21T16:35:37.698Z,34.07
2023-05-21T16:38:06.113Z,33.97
2023-05-21T16:40:35.977Z,33.90
2023-05-21T16:43:04.155Z,33.82
2023-05-21T16:45:39.733Z,33.77
2023-05-21T16:48:08.815Z,33.67
2023-05-21T16:50:36.968Z,33.56
2023-05-21T16:53:55.029Z,33.42
2023-05-21T16:56:27.212Z,33.30
2023-05-21T16:58:55.458Z,33.16
2023-05-21T17:01:24.170Z,33.07
2023-05-21T17:03:52.655Z,32.99
2023-05-21T17:09:47.992Z,32.81
2023-05-21T17:12:25.981Z,32.78
2023-05-21T17:14:55.491Z,32.77
2023-05-21T17:17:23.956Z,32.68
2023-05-21T17:19:52.230Z,32.60
2023-05-21T17:22:20.668Z,32.54
2023-05-21T17:24:49.333Z,32.49
2023-05-21T17:27:21.469Z,32.38
2023-05-21T17:29:51.073Z,32.26
2023-05-21T17:32:20.900Z,32.11
2023-05-21T17:34:49.470Z,32.02
2023-05-21T17:37:17.965Z,31.93
2023-05-21T17:39:46.237Z,31.86
2023-05-21T17:42:14.429Z,31.77
2023-05-21T17:44:44.063Z,31.61
2023-05-21T17:47:12.209Z,31.43
2023-05-21T17:49:40.312Z,31.32
2023-05-21T17:52:08.693Z,31.12
2023-05-21T17:54:36.820Z,31.03
2023-05-21T17:57:05.175Z,30.90
2023-05-21T17:59:33.627Z,30.76
2023-05-21T18:02:03.064Z,30.71
2023-05-21T18:04:31.955Z,30.96
2023-05-21T18:07:02.079Z,31.12
2023-05-21T18:09:30.848Z,31.13
2023-05-21T18:12:00.072Z,31.02
2023-05-21T18:14:29.351Z,30.82
2023-05-21T18:16:59.320Z,30.66
2023-05-21T18:19:33.161Z,30.41
2023-05-21T18:22:08.640Z,30.23
2023-05-21T18:24:40.030Z,30.05
2023-05-21T18:27:08.265Z,29.89
2023-05-21T18:29:37.787Z,29.74
2023-05-21T18:32:06.856Z,29.60
2023-05-21T18:34:36.398Z,29.47
2023-05-21T18:37:05.066Z,29.32
2023-05-21T18:39:33.428Z,29.17
2023-05-21T18:42:12.772Z,29.06
2023-05-21T18:44:41.815Z,28.94
2023-05-21T18:47:09.921Z,28.79
2023-05-21T18:49:39.483Z,28.69
2023-05-21T18:52:08.155Z,28.54
2023-05-21T18:54:36.557Z,28.39
2023-05-21T18:57:05.040Z,28.25
2023-05-21T18:59:33.524Z,28.11
2023-05-21T19:02:01.757Z,28.00
2023-05-21T19:04:29.983Z,27.88
2023-05-21T19:07:00.126Z,27.74
2023-05-21T19:09:28.182Z,27.61
2023-05-21T19:11:56.549Z,27.49
2023-05-21T19:14:24.773Z,27.36
2023-05-21T19:16:55.280Z,27.29
2023-05-21T19:19:23.629Z,27.20
2023-05-21T19:21:52.891Z,27.16
2023-05-21T19:24:22.333Z,27.08
2023-05-21T19:26:50.602Z,26.98
2023-05-21T19:29:19.024Z,26.95
2023-05-21T19:31:47.256Z,26.86
2023-05-21T19:34:15.760Z,26.76
2023-05-21T19:36:53.066Z,26.71
2023-05-21T19:39:23.462Z,26.62
2023-05-21T19:41:52.876Z,26.52
2023-05-21T19:44:21.048Z,26.39
2023-05-21T19:46:49.941Z,26.33
2023-05-21T19:49:19.967Z,26.27
2023-05-21T19:51:49.496Z,26.23
2023-05-21T19:54:18.516Z,26.18
2023-05-21T19:56:48.216Z,26.15
2023-05-21T19:59:16.461Z,26.06
2023-05-21T20:01:45.093Z,26.01
2023-05-21T20:04:14.128Z,25.98
2023-05-21T20:06:42.398Z,25.96
2023-05-21T20:09:13.277Z,25.91
2023-05-21T20:11:42.233Z,25.84
2023-05-21T20:14:11.681Z,25.74
2023-05-21T20:16:39.782Z,25.67
2023-05-21T20:19:11.201Z,25.58
2023-05-21T20:21:39.499Z,25.49
2023-05-21T20:24:08.807Z,25.42
2023-05-21T20:26:39.992Z,25.38
2023-05-21T20:29:08.542Z,25.33
2023-05-21T20:31:37.914Z,25.27
2023-05-21T20:34:07.678Z,25.23
2023-05-21T20:36:36.560Z,25.17
2023-05-21T20:39:06.258Z,25.12
2023-05-21T20:41:36.234Z,25.08
2023-05-21T20:44:06.815Z,25.08
2023-05-21T20:46:38.286Z,25.04
2023-05-21T20:49:09.737Z,25.03
2023-05-21T20:51:38.028Z,25.03
2023-05-21T20:54:06.761Z,25.03
2023-05-21T20:56:42.026Z,25.00
2023-05-21T20:59:12.080Z,24.97
2023-05-21T21:01:40.820Z,24.96
2023-05-21T21:04:11.433Z,24.91
2023-05-21T21:06:40.429Z,24.87
2023-05-21T21:09:09.271Z,24.82
2023-05-21T21:11:37.325Z,24.76
2023-05-21T21:14:05.689Z,24.75
2023-05-21T21:16:33.824Z,24.75
2023-05-21T21:19:02.188Z,24.72
2023-05-21T21:21:32.389Z,24.70
2023-05-21T21:24:00.555Z,24.65
2023-05-21T21:26:28.641Z,24.61
2023-05-21T21:28:57.043Z,24.63
2023-05-21T21:31:25.261Z,24.64
2023-05-21T21:33:53.421Z,24.61
2023-05-21T21:36:21.906Z,24.58
2023-05-21T21:38:51.424Z,24.56
2023-05-21T21:41:20.372Z,24.52
2023-05-21T21:43:48.656Z,24.48
2023-05-21T21:46:16.919Z,24.45
2023-05-21T21:48:45.286Z,24.39
2023-05-21T21:51:15.594Z,24.36
2023-05-21T21:53:44.250Z,24.33
2023-05-21T21:56:13.706Z,24.29
2023-05-21T21:58:42.233Z,24.26
2023-05-21T22:01:10.333Z,24.23
2023-05-21T22:03:38.850Z,24.20
2023-05-21T22:06:07.231Z,24.16
2023-05-21T22:08:37.885Z,24.15
2023-05-21T22:11:06.601Z,24.14
2023-05-21T22:13:36.116Z,24.11
2023-05-21T22:16:05.392Z,24.06
2023-05-21T22:18:41.031Z,24.03
2023-05-21T22:21:14.431Z,23.97
2023-05-21T22:23:43.113Z,23.94
2023-05-21T22:26:11.375Z,23.92
2023-05-21T22:28:40.963Z,23.91
2023-05-21T22:31:09.604Z,23.87
2023-05-21T22:33:37.778Z,23.86
2023-05-21T22:36:06.635Z,23.80
2023-05-21T22:38:35.219Z,23.73
2023-05-21T22:41:03.640Z,23.69
2023-05-21T22:43:31.995Z,23.61
2023-05-21T22:46:02.386Z,23.50
2023-05-21T22:48:31.541Z,23.41
2023-05-21T22:51:01.875Z,23.39
2023-05-21T22:53:32.025Z,23.31
2023-05-21T22:56:03.192Z,23.25
2023-05-21T22:58:33.460Z,23.21
2023-05-21T23:01:03.219Z,23.17
2023-05-21T23:03:31.680Z,23.13
2023-05-21T23:06:03.045Z,23.12
2023-05-21T23:08:31.409Z,23.07
2023-05-21T23:10:59.552Z,23.07
2023-05-21T23:13:27.536Z,23.07
2023-05-21T23:15:58.794Z,23.06
2023-05-21T23:18:28.526Z,23.04
2023-05-21T23:20:57.254Z,23.02
2023-05-21T23:23:25.516Z,23.01
2023-05-21T23:25:57.604Z,23.01
2023-05-21T23:28:26.813Z,22.99
2023-05-21T23:30:54.950Z,22.97
2023-05-21T23:33:23.312Z,22.96
2023-05-21T23:35:52.942Z,22.93
2023-05-21T23:38:21.503Z,22.89
2023-05-21T23:40:49.716Z,22.89
2023-05-21T23:43:18.217Z,22.87
2023-05-21T23:45:46.633Z,22.83
2023-05-21T23:48:14.946Z,22.81
2023-05-21T23:50:43.476Z,22.77
2023-05-21T23:53:12.891Z,22.75
2023-05-21T23:55:41.152Z,22.73
2023-05-21T23:58:21.818Z,22.70
